Time;durP1;ratioP1;P1;durP2;ratioP2;P2;SDS_P1;SDS_P2;PMS_P1;PMS_P2;Temp;Humidity;BMP_temperature;BMP_pressure;BME280_temperature;BME280_humidity;BME280_pressure;Samples;Min_cycle;Max_cycle;Signal;HPM_P1;HPM_P2
2023/09/12 00:02:10;;;;;;;0.00;0.00;;;;;;;29.80;56.51;101357.81;5080290;28;20051;-69
2023/09/12 00:04:36;;;;;;;0.00;0.00;;;;;;;29.86;56.52;101352.84;5071795;28;20052;-69
2023/09/12 00:07:02;;;;;;;0.00;0.00;;;;;;;29.74;57.03;101361.16;5071986;28;20040;-67
2023/09/12 00:09:27;;;;;;;0.00;0.00;;;;;;;29.80;57.24;101363.34;5072211;28;20477;-68
2023/09/12 00:11:53;;;;;;;0.00;0.00;;;;;;;29.88;56.62;101367.19;5072513;28;20025;-68
2023/09/12 00:14:19;;;;;;;0.00;0.00;;;;;;;29.94;56.45;101365.81;5073100;28;20040;-69
2023/09/12 00:16:44;;;;;;;0.00;0.00;;;;;;;29.87;56.64;101341.44;5071396;28;20407;-68
2023/09/12 00:19:09;;;;;;;0.00;0.00;;;;;;;29.81;56.46;101342.00;5071386;28;20037;-69
2023/09/12 00:21:35;;;;;;;0.00;0.00;;;;;;;29.80;56.91;101334.84;5071627;28;20064;-68
2023/09/12 00:24:01;;;;;;;0.00;0.00;;;;;;;29.67;56.48;101322.06;5071339;28;20571;-68
2023/09/12 00:26:26;;;;;;;0.00;0.00;;;;;;;29.58;56.63;101330.47;5071411;28;20040;-68
2023/09/12 00:28:52;;;;;;;0.00;0.00;;;;;;;29.65;56.87;101329.91;5072475;28;20043;-68
2023/09/12 00:31:17;;;;;;;0.00;0.00;;;;;;;29.66;56.29;101326.78;5072167;28;20543;-68
2023/09/12 00:33:43;;;;;;;0.00;0.00;;;;;;;29.66;56.07;101326.78;5054212;28;20079;-69
2023/09/12 00:36:08;;;;;;;0.00;0.00;;;;;;;29.45;57.13;101321.31;5054015;28;20499;-68
2023/09/12 00:38:33;;;;;;;0.00;0.00;;;;;;;29.61;55.76;101315.94;5072445;28;20035;-68
2023/09/12 00:40:59;;;;;;;0.00;0.00;;;;;;;29.49;56.70;101311.16;5072754;28;20017;-68
2023/09/12 00:43:24;;;;;;;0.00;0.00;;;;;;;29.57;56.27;101315.00;5072004;28;20036;-69
2023/09/12 00:45:49;;;;;;;0.00;0.00;;;;;;;29.35;56.45;101323.66;5072150;28;20040;-68
2023/09/12 00:48:16;;;;;;;0.00;0.00;;;;;;;29.41;56.57;101336.16;5071813;28;20029;-69
2023/09/12 00:50:43;;;;;;;0.00;0.00;;;;;;;28.90;57.27;101333.75;5071974;28;20048;-69
2023/09/12 00:53:09;;;;;;;0.00;0.00;;;;;;;28.90;57.76;101319.94;5072473;28;20017;-68
2023/09/12 00:55:37;;;;;;;0.00;0.00;;;;;;;28.97;57.87;101325.75;5071995;28;20144;-68
2023/09/12 00:58:03;;;;;;;0.00;0.00;;;;;;;28.84;57.87;101333.16;5071712;28;20365;-68
2023/09/12 01:00:28;;;;;;;0.00;0.00;;;;;;;28.85;57.85;101336.75;5071822;28;20090;-69
2023/09/12 01:02:54;;;;;;;0.00;0.00;;;;;;;28.90;57.13;101334.59;5071311;28;20045;-68
2023/09/12 01:05:20;;;;;;;0.00;0.00;;;;;;;28.85;57.35;101332.03;5072256;28;20481;-69
2023/09/12 01:07:46;;;;;;;0.00;0.00;;;;;;;28.98;56.90;101324.59;5071871;28;20148;-68
2023/09/12 01:10:12;;;;;;;0.00;0.00;;;;;;;29.11;56.48;101323.53;5053486;28;20555;-67
2023/09/12 01:12:37;;;;;;;0.00;0.00;;;;;;;28.92;57.21;101326.75;5071569;28;20036;-69
2023/09/12 01:15:08;;;;;;;0.00;0.00;;;;;;;28.84;56.87;101316.56;5071091;28;20045;-68
2023/09/12 01:17:33;;;;;;;0.00;0.00;;;;;;;28.66;57.67;101320.56;5071202;28;20028;-68
2023/09/12 01:20:00;;;;;;;0.00;0.00;;;;;;;28.82;57.25;101332.69;5064597;28;20113;-67
2023/09/12 01:22:52;;;;;;;0.00;0.00;;;;;;;28.91;57.07;101322.38;5071376;28;20044;-67
2023/09/12 01:25:52;;;;;;;0.00;0.00;;;;;;;28.86;57.12;101318.97;5071212;28;20036;-68
2023/09/12 01:28:18;;;;;;;0.00;0.00;;;;;;;28.63;57.44;101319.31;5071164;28;20048;-68
2023/09/12 01:30:47;;;;;;;0.00;0.00;;;;;;;28.72;56.79;101319.22;5071423;28;20048;-68
2023/09/12 01:33:13;;;;;;;0.00;0.00;;;;;;;28.66;57.79;101320.56;5071243;28;20093;-68
2023/09/12 01:35:38;;;;;;;0.00;0.00;;;;;;;28.60;57.33;101319.13;5071067;28;20028;-68
2023/09/12 01:38:03;;;;;;;0.00;0.00;;;;;;;28.63;57.47;101327.59;5071537;28;20024;-68
2023/09/12 01:40:38;;;;;;;0.00;0.00;;;;;;;28.57;57.92;101317.88;5071169;28;20033;-68
2023/09/12 01:43:06;;;;;;;0.00;0.00;;;;;;;28.64;57.47;101329.22;5071227;28;20439;-69
2023/09/12 01:45:32;;;;;;;0.00;0.00;;;;;;;28.53;56.82;101339.00;5076486;28;20388;-68
2023/09/12 01:47:59;;;;;;;0.00;0.00;;;;;;;28.49;57.59;101335.28;5091036;28;20040;-68
2023/09/12 01:50:26;;;;;;;0.00;0.00;;;;;;;28.44;56.93;101334.69;5091243;28;20028;-69
2023/09/12 01:52:53;;;;;;;0.00;0.00;;;;;;;28.42;57.46;101328.66;5091516;28;20496;-69
2023/09/12 01:55:20;;;;;;;0.00;0.00;;;;;;;28.33;57.99;101325.13;5077462;28;20033;-68
2023/09/12 01:57:47;;;;;;;0.00;0.00;;;;;;;28.38;57.66;101314.66;5068791;28;20116;-68
2023/09/12 02:00:13;;;;;;;0.00;0.00;;;;;;;28.50;57.44;101323.06;5070632;28;20047;-68
2023/09/12 02:02:38;;;;;;;0.00;0.00;;;;;;;28.38;58.18;101322.19;5070613;28;20029;-69
2023/09/12 02:05:15;;;;;;;0.00;0.00;;;;;;;28.39;58.90;101315.50;5070956;28;20076;-68
2023/09/12 02:07:41;;;;;;;0.00;0.00;;;;;;;28.17;59.62;101329.56;5070692;28;20028;-69
2023/09/12 02:10:07;;;;;;;0.00;0.00;;;;;;;28.20;58.72;101326.97;5070455;28;20105;-68
2023/09/12 02:12:32;;;;;;;0.00;0.00;;;;;;;28.19;59.56;101335.56;5070512;28;20511;-69
2023/09/12 02:14:58;;;;;;;0.00;0.00;;;;;;;28.20;59.50;101337.22;5069370;28;20028;-68
2023/09/12 02:17:23;;;;;;;0.00;0.00;;;;;;;28.45;59.38;101331.56;5070410;28;20364;-69
2023/09/12 02:19:49;;;;;;;0.00;0.00;;;;;;;28.52;58.65;101331.84;5071068;28;20021;-68
2023/09/12 02:22:14;;;;;;;0.00;0.00;;;;;;;28.33;59.06;101330.63;5052559;28;20044;-68
2023/09/12 02:24:39;;;;;;;0.00;0.00;;;;;;;28.47;59.54;101326.50;5070413;28;20032;-67
2023/09/12 02:27:05;;;;;;;0.00;0.00;;;;;;;28.26;60.86;101319.31;5069772;28;20078;-68
2023/09/12 02:29:32;;;;;;;0.00;0.00;;;;;;;28.58;59.15;101321.44;5052201;28;20633;-68
2023/09/12 02:31:58;;;;;;;0.00;0.00;;;;;;;27.96;61.51;101326.72;5071001;28;20499;-68
2023/09/12 02:34:23;;;;;;;0.00;0.00;;;;;;;27.72;62.51;101321.72;5052102;28;20028;-69
2023/09/12 02:36:48;;;;;;;0.10;0.10;;;;;;;27.69;62.51;101319.59;5052027;28;20033;-68
2023/09/12 02:39:14;;;;;;;0.10;0.10;;;;;;;27.76;63.04;101317.16;5070359;28;20024;-68
2023/09/12 02:41:39;;;;;;;0.00;0.00;;;;;;;28.00;61.54;101315.81;5074616;28;20050;-67
2023/09/12 02:44:05;;;;;;;0.10;0.10;;;;;;;28.19;61.02;101321.75;5083979;28;20095;-68
2023/09/12 02:46:30;;;;;;;0.00;0.00;;;;;;;28.41;59.97;101316.78;5069633;28;20032;-69
2023/09/12 02:48:56;;;;;;;0.00;0.00;;;;;;;28.51;59.16;101323.88;5069649;28;20049;-69
2023/09/12 02:51:21;;;;;;;0.00;0.00;;;;;;;27.98;60.53;101327.19;5070029;28;20654;-69
2023/09/12 02:53:46;;;;;;;0.00;0.00;;;;;;;28.51;60.95;101318.34;5069821;28;20033;-68
2023/09/12 02:56:12;;;;;;;0.10;0.10;;;;;;;28.19;62.42;101322.56;5070344;28;20642;-68
2023/09/12 02:58:37;;;;;;;0.00;0.00;;;;;;;28.19;61.90;101319.81;5051288;28;20162;-68
2023/09/12 03:01:05;;;;;;;0.00;0.00;;;;;;;28.22;62.01;101327.44;5051365;28;20040;-64
2023/09/12 03:03:31;;;;;;;0.00;0.00;;;;;;;28.35;61.25;101333.88;5069686;28;20025;-64
2023/09/12 03:06:00;;;;;;;0.00;0.00;;;;;;;28.31;61.19;101341.22;5069920;28;20048;-64
2023/09/12 03:08:25;;;;;;;0.00;0.00;;;;;;;28.45;60.51;101341.81;5069967;28;20372;-65
2023/09/12 03:10:57;;;;;;;0.00;0.00;;;;;;;28.24;61.32;101338.16;5070269;28;20043;-64
2023/09/12 03:13:26;;;;;;;0.00;0.00;;;;;;;28.27;61.58;101331.97;5069859;28;20033;-64
2023/09/12 03:15:52;;;;;;;0.00;0.00;;;;;;;28.05;62.47;101340.53;5069637;28;20029;-65
2023/09/12 03:18:17;;;;;;;0.00;0.00;;;;;;;26.77;65.23;101333.06;5069590;28;20127;-65
2023/09/12 03:20:42;;;;;;;0.00;0.00;;;;;;;27.58;64.23;101329.38;5069884;28;20123;-65
2023/09/12 03:23:08;;;;;;;0.00;0.00;;;;;;;27.86;62.15;101331.75;5070065;28;20040;-65
2023/09/12 03:25:38;;;;;;;0.00;0.00;;;;;;;27.96;61.80;101332.25;5069712;28;20393;-64
2023/09/12 03:28:05;;;;;;;0.00;0.00;;;;;;;28.07;60.48;101339.03;5069485;28;20051;-64
2023/09/12 03:30:32;;;;;;;0.00;0.00;;;;;;;27.62;62.41;101338.63;5069546;28;20809;-65
2023/09/12 03:32:57;;;;;;;0.00;0.00;;;;;;;26.95;63.93;101335.50;5069599;28;20392;-65
2023/09/12 03:35:23;;;;;;;0.00;0.00;;;;;;;27.24;63.02;101332.13;5064408;28;20043;-64
2023/09/12 03:37:48;;;;;;;0.10;0.10;;;;;;;27.65;61.15;101326.94;5075001;28;20364;-65
2023/09/12 03:40:14;;;;;;;0.00;0.00;;;;;;;27.14;63.73;101326.13;5079977;28;20044;-66
2023/09/12 03:42:39;;;;;;;0.00;0.00;;;;;;;27.83;60.47;101317.44;5073274;28;20040;-64
2023/09/12 03:45:05;;;;;;;0.00;0.00;;;;;;;27.60;61.52;101324.31;5073057;28;20028;-64
2023/09/12 03:47:30;;;;;;;0.00;0.00;;;;;;;27.38;62.87;101324.50;5073003;28;20024;-65
2023/09/12 03:49:56;;;;;;;0.08;0.08;;;;;;;27.41;62.82;101331.34;5073558;28;20392;-64
2023/09/12 03:52:21;;;;;;;0.00;0.00;;;;;;;27.55;62.14;101329.22;5073017;28;20036;-65
2023/09/12 03:54:46;;;;;;;0.03;0.03;;;;;;;27.06;64.01;101335.19;5072927;28;20064;-65
2023/09/12 03:57:12;;;;;;;0.00;0.00;;;;;;;27.14;63.88;101329.69;5087836;28;20029;-65
2023/09/12 03:59:37;;;;;;;0.00;0.00;;;;;;;27.83;60.79;101318.59;5073057;28;20039;-65
2023/09/12 04:02:03;;;;;;;0.10;0.10;;;;;;;27.77;61.36;101315.22;5061657;28;20024;-65
2023/09/12 04:04:29;;;;;;;0.00;0.00;;;;;;;27.89;61.45;101314.53;5063972;28;20059;-64
2023/09/12 04:06:54;;;;;;;0.00;0.00;;;;;;;28.03;60.74;101315.97;5058307;28;20381;-64
2023/09/12 04:09:20;;;;;;;0.00;0.00;;;;;;;28.07;61.00;101305.88;5071855;28;20029;-65
2023/09/12 04:11:45;;;;;;;0.00;0.00;;;;;;;27.45;63.51;101308.28;5061188;28;20025;-65
2023/09/12 04:14:11;;;;;;;0.00;0.00;;;;;;;27.75;61.99;101312.75;5072710;28;20024;-64
2023/09/12 04:16:36;;;;;;;0.00;0.00;;;;;;;27.87;61.63;101297.47;5072529;28;20040;-65
2023/09/12 04:19:02;;;;;;;0.00;0.00;;;;;;;27.83;60.96;101298.13;5071999;28;20048;-65
2023/09/12 04:21:28;;;;;;;0.00;0.00;;;;;;;27.80;61.67;101295.19;5072660;28;20041;-65
2023/09/12 04:23:53;;;;;;;0.00;0.00;;;;;;;27.90;61.12;101285.75;5072680;28;20033;-64
2023/09/12 04:26:19;;;;;;;0.00;0.00;;;;;;;27.28;62.78;101290.88;5072933;28;20472;-65
2023/09/12 04:28:46;;;;;;;0.00;0.00;;;;;;;27.54;61.63;101299.97;5072257;28;20064;-65
2023/09/12 04:31:12;;;;;;;0.03;0.03;;;;;;;27.02;63.84;101292.84;5072398;28;20041;-65
2023/09/12 04:33:37;;;;;;;0.00;0.00;;;;;;;27.43;62.78;101293.16;5072705;28;20388;-65
2023/09/12 04:36:03;;;;;;;0.00;0.00;;;;;;;27.94;60.71;101284.75;5079124;28;20044;-65
2023/09/12 04:38:29;;;;;;;0.00;0.00;;;;;;;28.03;60.41;101277.28;5072215;28;20024;-64
2023/09/12 04:40:56;;;;;;;0.00;0.00;;;;;;;27.86;60.50;101277.31;5072794;28;20550;-65
2023/09/12 04:43:21;;;;;;;0.00;0.00;;;;;;;28.14;59.51;101275.78;5072245;28;20515;-65
2023/09/12 04:45:46;;;;;;;0.00;0.00;;;;;;;28.08;59.55;101274.34;5072081;28;20041;-64
2023/09/12 04:48:12;;;;;;;0.00;0.00;;;;;;;27.66;60.54;101270.53;5071387;28;20028;-65
2023/09/12 04:50:43;;;;;;;0.00;0.00;;;;;;;27.33;61.58;101274.19;5071989;28;20476;-66
2023/09/12 04:53:09;;;;;;;0.00;0.00;;;;;;;26.83;63.88;101274.63;5072366;28;20020;-65
2023/09/12 04:55:37;;;;;;;0.00;0.00;;;;;;;27.12;63.94;101282.28;5072045;28;20037;-65
2023/09/12 04:58:04;;;;;;;0.00;0.00;;;;;;;27.29;62.05;101290.56;5071117;28;20044;-64
2023/09/12 05:00:29;;;;;;;0.00;0.00;;;;;;;27.58;61.11;101285.19;5071327;28;20060;-65
2023/09/12 05:02:55;;;;;;;0.00;0.00;;;;;;;27.15;62.23;101283.56;5071295;28;20096;-65
2023/09/12 05:05:20;;;;;;;0.10;0.10;;;;;;;27.10;61.40;101284.56;5068473;28;20515;-64
2023/09/12 05:07:45;;;;;;;0.00;0.00;;;;;;;27.26;60.48;101288.44;5071161;28;20024;-64
2023/09/12 05:10:11;;;;;;;0.00;0.00;;;;;;;27.56;60.42;101283.88;5071106;28;20098;-66
2023/09/12 05:12:36;;;;;;;0.00;0.00;;;;;;;27.75;58.31;101284.34;5051920;28;20082;-65
2023/09/12 05:15:02;;;;;;;0.00;0.00;;;;;;;27.04;61.45;101279.53;5085522;28;20033;-64
2023/09/12 05:17:28;;;;;;;0.00;0.00;;;;;;;27.26;60.54;101282.91;5070709;28;20034;-64
2023/09/12 05:19:53;;;;;;;0.00;0.00;;;;;;;27.45;59.56;101277.91;5053647;28;20040;-65
2023/09/12 05:22:19;;;;;;;0.00;0.00;;;;;;;27.59;59.52;101280.47;5071056;28;20055;-64
2023/09/12 05:24:45;;;;;;;0.00;0.00;;;;;;;27.29;60.49;101281.47;5074639;28;20362;-65
2023/09/12 05:27:11;;;;;;;0.00;0.00;;;;;;;27.56;59.64;101275.59;5070105;28;20040;-65
2023/09/12 05:29:37;;;;;;;0.00;0.00;;;;;;;27.62;59.50;101277.03;5070462;28;20111;-65
2023/09/12 05:32:03;;;;;;;0.00;0.00;;;;;;;27.68;58.95;101290.38;5079707;28;20384;-65
2023/09/12 05:34:28;;;;;;;0.00;0.00;;;;;;;27.83;58.35;101290.97;5080503;28;20052;-64
2023/09/12 05:36:54;;;;;;;0.00;0.00;;;;;;;27.85;58.99;101297.00;5074506;28;20036;-65
2023/09/12 05:39:19;;;;;;;0.00;0.00;;;;;;;28.00;58.47;101297.28;5061882;28;20040;-64
2023/09/12 05:41:45;;;;;;;0.00;0.00;;;;;;;27.88;58.17;101299.06;5070898;28;20056;-65
2023/09/12 05:44:12;;;;;;;0.00;0.00;;;;;;;27.99;58.77;101301.19;5052548;28;20085;-64
2023/09/12 05:46:38;;;;;;;0.00;0.00;;;;;;;28.00;58.84;101299.22;5070761;28;20040;-65
2023/09/12 05:49:03;;;;;;;0.00;0.00;;;;;;;27.96;58.75;101306.56;5070604;28;20036;-65
2023/09/12 05:51:29;;;;;;;0.00;0.00;;;;;;;28.19;57.64;101308.75;5070743;28;20036;-64
2023/09/12 05:53:54;;;;;;;0.00;0.00;;;;;;;27.86;59.26;101307.69;5070604;28;20036;-64
2023/09/12 05:56:21;;;;;;;0.00;0.00;;;;;;;27.53;60.05;101329.56;5070362;28;20448;-64
2023/09/12 05:58:46;;;;;;;0.00;0.00;;;;;;;27.75;59.99;101323.81;5070932;28;20028;-64
2023/09/12 06:01:12;;;;;;;0.00;0.00;;;;;;;27.54;60.82;101327.56;5069590;28;20063;-64
2023/09/12 06:03:38;;;;;;;0.00;0.00;;;;;;;28.02;59.56;101341.16;5070124;28;20064;-64
2023/09/12 06:06:03;;;;;;;0.00;0.00;;;;;;;28.12;58.52;101354.63;5087343;28;20032;-64
2023/09/12 06:08:29;;;;;;;0.00;0.00;;;;;;;27.92;59.06;101344.25;5090433;28;20128;-64
2023/09/12 06:10:55;;;;;;;0.00;0.00;;;;;;;27.68;59.95;101342.84;5089227;28;20072;-65
2023/09/12 06:13:20;;;;;;;0.00;0.00;;;;;;;28.05;58.49;101344.06;5070411;28;20033;-65
2023/09/12 06:15:46;;;;;;;0.00;0.00;;;;;;;28.02;59.04;101341.16;5069854;28;20111;-64
2023/09/12 06:18:11;;;;;;;0.00;0.00;;;;;;;28.22;57.88;101335.75;5070032;28;20031;-64
2023/09/12 06:20:38;;;;;;;0.00;0.00;;;;;;;28.30;57.49;101336.84;5069875;28;20763;-64
2023/09/12 06:23:03;;;;;;;0.00;0.00;;;;;;;28.09;58.28;101341.50;5070388;28;20060;-65
2023/09/12 06:25:29;;;;;;;0.00;0.00;;;;;;;28.15;58.37;101353.97;5061776;28;20071;-66
2023/09/12 06:27:54;;;;;;;0.00;0.00;;;;;;;28.23;58.23;101353.13;5068450;28;20040;-65
2023/09/12 06:30:20;;;;;;;0.00;0.00;;;;;;;28.14;58.00;101357.88;5063115;28;20033;-67
2023/09/12 06:32:45;;;;;;;0.00;0.00;;;;;;;28.30;58.15;101356.19;5068891;28;20032;-65
2023/09/12 06:35:11;;;;;;;0.00;0.00;;;;;;;28.33;58.12;101353.56;5069186;28;20040;-65
2023/09/12 06:37:39;;;;;;;0.00;0.00;;;;;;;28.48;57.26;101361.31;5068949;28;20043;-65
2023/09/12 06:40:06;;;;;;;0.00;0.00;;;;;;;28.49;58.37;101368.47;5069014;28;20037;-64
2023/09/12 06:42:32;;;;;;;0.00;0.00;;;;;;;28.44;59.06;101363.13;5068864;28;20043;-65
2023/09/12 06:44:57;;;;;;;0.00;0.00;;;;;;;28.39;58.96;101351.44;5076063;28;20395;-66
2023/09/12 06:47:23;;;;;;;0.00;0.00;;;;;;;28.51;57.89;101352.38;5088931;28;20031;-64
2023/09/12 06:49:48;;;;;;;0.00;0.00;;;;;;;28.60;58.21;101353.16;5089291;28;20020;-69
2023/09/12 06:52:13;;;;;;;0.00;0.00;;;;;;;28.37;58.70;101357.31;5088928;28;20036;-67
2023/09/12 06:54:39;;;;;;;0.00;0.00;;;;;;;28.70;57.97;101349.19;5088807;28;20033;-64
2023/09/12 06:57:04;;;;;;;0.00;0.00;;;;;;;28.65;57.79;101346.63;5088911;28;20032;-65
2023/09/12 06:59:30;;;;;;;0.00;0.00;;;;;;;28.69;57.71;101357.81;5073002;28;20032;-66
2023/09/12 07:01:55;;;;;;;0.00;0.00;;;;;;;28.25;58.49;101359.94;5069438;28;20039;-64
2023/09/12 07:04:21;;;;;;;0.00;0.00;;;;;;;28.57;57.37;101353.84;5068387;28;20749;-65
2023/09/12 07:06:46;;;;;;;0.00;0.00;;;;;;;28.48;58.54;101355.00;5050634;28;20041;-64
2023/09/12 07:09:14;;;;;;;0.00;0.00;;;;;;;28.15;59.06;101354.78;5068771;28;20036;-67
2023/09/12 07:11:40;;;;;;;0.00;0.00;;;;;;;28.13;59.08;101356.25;5070572;28;20032;-66
2023/09/12 07:14:06;;;;;;;0.00;0.00;;;;;;;28.44;58.07;101360.34;5074447;28;20048;-65
2023/09/12 07:16:32;;;;;;;0.00;0.00;;;;;;;28.23;59.09;101359.47;5073554;28;20052;-66
2023/09/12 07:18:57;;;;;;;0.00;0.00;;;;;;;28.33;59.41;101358.28;5073454;28;20043;-65
2023/09/12 07:21:22;;;;;;;0.00;0.00;;;;;;;28.53;58.89;101368.63;5073650;28;20028;-65
2023/09/12 07:23:48;;;;;;;0.00;0.00;;;;;;;28.48;59.36;101361.31;5085834;28;20043;-65
2023/09/12 07:26:14;;;;;;;0.00;0.00;;;;;;;28.11;60.20;101364.09;5094435;28;20452;-66
2023/09/12 07:28:40;;;;;;;0.00;0.00;;;;;;;27.94;59.91;101358.53;5079358;28;20037;-65
2023/09/12 07:31:05;;;;;;;0.00;0.00;;;;;;;28.28;59.71;101373.13;5073504;28;20056;-68
2023/09/12 07:33:32;;;;;;;0.00;0.00;;;;;;;28.42;59.11;101370.94;5073278;28;20499;-66
2023/09/12 07:35:59;;;;;;;0.00;0.00;;;;;;;28.89;57.85;101374.47;5073141;28;20044;-64
2023/09/12 07:38:25;;;;;;;0.00;0.00;;;;;;;28.53;59.33;101377.72;5073394;28;20028;-64
2023/09/12 07:40:50;;;;;;;0.00;0.00;;;;;;;28.22;60.39;101379.97;5073752;28;20025;-64
2023/09/12 07:43:16;;;;;;;0.00;0.00;;;;;;;28.70;58.81;101378.81;5073073;28;20041;-65
2023/09/12 07:45:41;;;;;;;0.00;0.00;;;;;;;28.04;60.36;101381.16;5072974;28;20070;-64
2023/09/12 07:48:09;;;;;;;0.00;0.00;;;;;;;28.52;59.38;101380.84;5073075;28;20029;-64
2023/09/12 07:50:38;;;;;;;0.00;0.00;;;;;;;29.16;57.10;101379.53;5073021;28;20052;-64
2023/09/12 07:53:05;;;;;;;0.00;0.00;;;;;;;29.26;57.19;101373.59;5073634;28;20033;-64
2023/09/12 07:55:34;;;;;;;0.00;0.00;;;;;;;29.26;56.69;101375.56;5072733;28;20098;-65
2023/09/12 07:57:59;;;;;;;0.00;0.00;;;;;;;28.15;59.10;101384.38;5072696;28;20120;-65
2023/09/12 08:00:25;;;;;;;0.00;0.00;;;;;;;28.95;57.91;101372.31;5072546;28;20036;-63
2023/09/12 08:02:50;;;;;;;0.00;0.00;;;;;;;28.78;58.17;101378.75;5072596;28;20028;-64
2023/09/12 08:05:16;;;;;;;0.00;0.00;;;;;;;28.87;56.77;101378.72;5072906;28;20053;-64
2023/09/12 08:07:41;;;;;;;0.00;0.00;;;;;;;28.43;58.64;101394.69;5072824;28;20044;-63
2023/09/12 08:10:07;;;;;;;0.00;0.00;;;;;;;28.71;58.45;101385.97;5072695;28;20051;-64
2023/09/12 08:12:32;;;;;;;0.00;0.00;;;;;;;29.53;55.86;101397.16;5072798;28;20032;-64
2023/09/12 08:14:58;;;;;;;0.00;0.00;;;;;;;29.23;56.27;101377.03;5072688;28;20074;-65
2023/09/12 08:17:24;;;;;;;0.00;0.00;;;;;;;28.86;58.32;101388.16;5072549;28;20403;-64
2023/09/12 08:19:49;;;;;;;0.00;0.00;;;;;;;29.60;56.24;101393.84;5083184;28;20031;-65
2023/09/12 08:22:15;;;;;;;0.00;0.00;;;;;;;30.14;55.33;101387.94;5092939;28;20093;-64
2023/09/12 08:24:40;;;;;;;0.00;0.00;;;;;;;29.93;55.57;101394.69;5091772;28;20032;-67
2023/09/12 08:27:06;;;;;;;0.00;0.00;;;;;;;30.08;55.09;101386.53;5091250;28;20043;-63
2023/09/12 08:29:33;;;;;;;0.00;0.00;;;;;;;30.37;54.64;101380.03;5072784;28;20683;-64
2023/09/12 08:31:59;;;;;;;0.00;0.00;;;;;;;30.54;53.95;101381.78;5072834;28;20028;-64
2023/09/12 08:34:25;;;;;;;0.00;0.00;;;;;;;30.75;53.97;101374.16;5072248;28;20472;-64
2023/09/12 08:36:51;;;;;;;0.00;0.00;;;;;;;30.95;53.03;101376.03;5072223;28;20067;-63
2023/09/12 08:39:26;;;;;;;0.00;0.00;;;;;;;30.90;52.51;101382.59;5072399;28;20033;-64
2023/09/12 08:41:52;;;;;;;0.00;0.00;;;;;;;30.40;52.65;101382.13;5072361;28;20504;-64
2023/09/12 08:44:18;;;;;;;0.00;0.00;;;;;;;30.26;53.53;101387.16;5072687;28;20028;-64
2023/09/12 08:46:44;;;;;;;0.00;0.00;;;;;;;29.98;53.62;101381.44;5072279;28;20377;-64
2023/09/12 08:49:11;;;;;;;0.00;0.00;;;;;;;30.71;51.66;101378.78;5072013;28;20028;-64
2023/09/12 08:51:39;;;;;;;0.00;0.00;;;;;;;30.19;52.64;101378.59;5072113;28;20123;-64
2023/09/12 08:54:06;;;;;;;0.00;0.00;;;;;;;30.72;50.44;101381.19;5072025;28;20031;-63
2023/09/12 08:56:34;;;;;;;0.00;0.00;;;;;;;30.00;53.07;101381.91;5072001;28;20032;-64
2023/09/12 08:59:01;;;;;;;0.00;0.00;;;;;;;29.70;52.94;101385.13;5104749;28;20044;-62
2023/09/12 09:01:29;;;;;;;0.00;0.00;;;;;;;30.42;51.35;101390.09;5071824;28;20045;-64
2023/09/12 09:03:55;;;;;;;0.00;0.00;;;;;;;30.06;51.21;101388.84;5071338;28;20083;-63
2023/09/12 09:06:22;;;;;;;0.00;0.00;;;;;;;28.90;55.80;101392.69;5071545;28;20032;-65
2023/09/12 09:08:50;;;;;;;0.00;0.00;;;;;;;29.36;54.34;101389.00;5071609;28;20036;-65
2023/09/12 09:11:16;;;;;;;0.00;0.00;;;;;;;29.50;53.10;101400.63;5071003;28;20025;-65
2023/09/12 09:13:41;;;;;;;0.00;0.00;;;;;;;29.72;52.47;101394.72;5070337;28;20059;-64
2023/09/12 09:16:18;;;;;;;0.00;0.00;;;;;;;29.19;54.02;101395.47;5069982;28;20433;-65
2023/09/12 09:19:00;;;;;;;0.00;0.00;;;;;;;29.46;52.52;101394.13;5068940;28;20044;-65
2023/09/12 09:21:30;;;;;;;0.00;0.00;;;;;;;30.47;49.78;101387.91;5069123;28;20044;-65
2023/09/12 09:23:56;;;;;;;0.00;0.00;;;;;;;29.69;51.76;101386.25;5067725;28;20024;-64
2023/09/12 09:26:22;;;;;;;0.00;0.00;;;;;;;30.21;50.94;101392.94;5052114;28;20385;-65
2023/09/12 09:29:09;;;;;;;0.00;0.00;;;;;;;31.04;49.36;101391.38;5070455;28;20028;-64
2023/09/12 09:31:35;;;;;;;0.00;0.00;;;;;;;29.95;51.61;101389.63;5051161;28;20082;-64
2023/09/12 09:34:03;;;;;;;0.00;0.00;;;;;;;31.18;48.89;101382.69;5051038;28;20036;-64
2023/09/12 09:36:28;;;;;;;0.00;0.00;;;;;;;30.38;51.42;101386.41;5050969;28;20452;-64
2023/09/12 09:38:56;;;;;;;0.00;0.00;;;;;;;31.24;48.17;101391.56;5051166;28;20080;-64
2023/09/12 09:41:22;;;;;;;0.00;0.00;;;;;;;31.05;47.96;101389.44;5050980;28;20021;-65
2023/09/12 09:43:51;;;;;;;0.00;0.00;;;;;;;30.31;50.96;101398.03;5054667;28;20513;-62
2023/09/12 09:46:17;;;;;;;0.00;0.00;;;;;;;30.58;50.24;101391.03;5070981;28;20039;-64
2023/09/12 09:48:50;;;;;;;0.00;0.00;;;;;;;29.89;51.64;101391.81;5070868;28;20040;-65
2023/09/12 09:51:16;;;;;;;0.00;0.00;;;;;;;31.30;48.56;101384.63;5070575;28;20032;-64
2023/09/12 09:53:43;;;;;;;0.00;0.00;;;;;;;29.80;52.78;101391.06;5070914;28;20503;-64
2023/09/12 09:56:12;;;;;;;0.00;0.00;;;;;;;30.25;51.75;101386.34;5071010;28;20029;-64
2023/09/12 09:58:51;;;;;;;0.00;0.00;;;;;;;30.45;51.57;101392.97;5070574;28;20044;-64
2023/09/12 10:01:25;;;;;;;0.00;0.00;;;;;;;31.03;50.58;101387.00;5070735;28;20040;-65
2023/09/12 10:03:52;;;;;;;0.00;0.00;;;;;;;31.11;50.02;101385.25;5070380;28;20032;-64
2023/09/12 10:06:19;;;;;;;0.00;0.00;;;;;;;31.71;48.32;101385.09;5085817;28;20056;-64
2023/09/12 10:08:49;;;;;;;0.00;0.00;;;;;;;30.91;50.69;101383.44;5070523;28;20041;-66
2023/09/12 10:11:16;;;;;;;0.00;0.00;;;;;;;31.53;49.48;101377.41;5053780;28;20063;-64
2023/09/12 10:14:05;;;;;;;0.00;0.00;;;;;;;30.88;50.33;101384.91;5090747;28;20142;-64
2023/09/12 10:16:32;;;;;;;0.00;0.00;;;;;;;30.64;52.53;101387.69;5077067;28;20029;-64
2023/09/12 10:19:24;;;;;;;0.00;0.00;;;;;;;32.12;48.92;101383.06;5070355;28;20373;-64
2023/09/12 10:22:01;;;;;;;0.00;0.00;;;;;;;31.12;50.05;101384.09;5070064;28;20071;-64
2023/09/12 10:24:28;;;;;;;0.00;0.00;;;;;;;32.38;46.42;101386.09;5070381;28;20396;-64
2023/09/12 10:26:54;;;;;;;0.00;0.00;;;;;;;31.72;48.00;101389.50;5051770;28;20130;-64
2023/09/12 10:29:20;;;;;;;0.00;0.00;;;;;;;30.95;50.03;101395.44;5070346;28;20116;-64
2023/09/12 10:31:47;;;;;;;0.00;0.00;;;;;;;31.90;47.67;101399.13;5070473;28;20107;-64
2023/09/12 10:34:16;;;;;;;0.00;0.00;;;;;;;31.61;48.06;101395.88;5070029;28;20079;-63
2023/09/12 10:36:43;;;;;;;0.00;0.00;;;;;;;32.11;47.58;101398.94;5069889;28;20037;-64
2023/09/12 10:39:10;;;;;;;0.00;0.00;;;;;;;31.60;48.08;101400.66;5070034;28;20044;-63
2023/09/12 10:41:38;;;;;;;0.00;0.00;;;;;;;32.44;46.24;101407.78;5069871;28;20067;-63
2023/09/12 10:44:11;;;;;;;0.00;0.00;;;;;;;31.90;47.09;101399.13;5070107;28;20020;-63
2023/09/12 10:46:40;;;;;;;0.00;0.00;;;;;;;32.61;46.25;101407.41;5068977;28;20025;-64
2023/09/12 10:49:10;;;;;;;0.00;0.00;;;;;;;32.08;48.03;101405.19;5069400;28;20053;-64
2023/09/12 10:51:41;;;;;;;0.00;0.00;;;;;;;30.81;51.11;101394.97;5069460;28;20489;-63
2023/09/12 10:54:07;;;;;;;;;;;;;;;31.74;48.31;101400.25;5070243;28;20033;-63
2023/09/12 10:56:33;;;;;;;0.00;0.00;;;;;;;31.63;48.68;101399.94;5070008;28;19916;-63
2023/09/12 10:59:06;;;;;;;0.00;0.00;;;;;;;32.11;47.12;101410.06;5070196;28;20047;-64
2023/09/12 11:01:32;;;;;;;0.00;0.00;;;;;;;31.39;48.75;101404.78;5069638;28;20036;-63
2023/09/12 11:03:58;;;;;;;0.00;0.00;;;;;;;32.17;47.59;101399.47;5069783;28;20029;-62
2023/09/12 11:06:29;;;;;;;0.00;0.00;;;;;;;32.22;46.43;101396.41;5069454;28;20055;-64
2023/09/12 11:09:13;;;;;;;0.00;0.00;;;;;;;33.41;43.06;101399.38;5082978;28;20028;-63
2023/09/12 11:11:39;;;;;;;0.00;0.00;;;;;;;33.04;43.52;101402.91;5090023;28;20097;-64
2023/09/12 11:14:05;;;;;;;0.00;0.00;;;;;;;32.40;46.25;101406.03;5090373;28;20024;-63
2023/09/12 11:16:32;;;;;;;0.00;0.00;;;;;;;32.86;43.98;101405.25;5076340;28;20043;-63
2023/09/12 11:19:14;;;;;;;0.00;0.00;;;;;;;33.33;42.78;101403.19;5069634;28;20068;-63
2023/09/12 11:21:40;;;;;;;0.00;0.00;;;;;;;33.31;43.08;101399.94;5069210;28;20040;-63
2023/09/12 11:24:06;;;;;;;0.00;0.00;;;;;;;33.96;41.25;101394.53;5069648;28;20035;-64